Time;durP1;ratioP1;P1;durP2;ratioP2;P2;SDS_P1;SDS_P2;PMS_P1;PMS_P2;Temp;Humidity;BMP_temperature;BMP_pressure;BME280_temperature;BME280_humidity;BME280_pressure;Samples;Min_cycle;Max_cycle;Signal;HPM_P1;HPM_P2
2022/12/14 00:01:16;;;;;;;61.47;28.15;;;;;;;;;;5052731;28;20044;-73
2022/12/14 00:03:42;;;;;;;66.93;29.13;;;;;;;;;;5052452;28;20077;-73
2022/12/14 00:06:29;;;;;;;66.72;29.15;;;;;;;;;;5035816;28;20086;-73
2022/12/14 00:08:56;;;;;;;65.10;28.80;;;;;;;;;;5052517;28;20044;-73
2022/12/14 00:11:22;;;;;;;56.00;26.20;;;;;;;;;;5052586;28;20132;-73
2022/12/14 00:13:55;;;;;;;67.57;28.02;;;;;;;;;;5052261;28;20041;-73
2022/12/14 00:16:22;;;;;;;81.75;31.80;;;;;;;;;;5052346;28;20057;-73
2022/12/14 00:18:49;;;;;;;75.80;30.92;;;;;;;;;;5035678;28;20048;-72
2022/12/14 00:21:15;;;;;;;67.50;28.92;;;;;;;;;;5052326;28;20041;-73
2022/12/14 00:23:43;;;;;;;82.38;30.75;;;;;;;;;;5035444;28;20112;-73
2022/12/14 00:26:16;;;;;;;99.88;33.83;;;;;;;;;;5052623;28;20393;-72
2022/12/14 00:28:43;;;;;;;88.65;34.88;;;;;;;;;;5051922;28;20044;-73
2022/12/14 00:31:09;;;;;;;111.28;37.28;;;;;;;;;;5052248;28;20044;-72
2022/12/14 00:33:35;;;;;;;69.15;29.23;;;;;;;;;;5050491;28;20037;-72
2022/12/14 00:36:02;;;;;;;85.22;32.08;;;;;;;;;;5052132;28;20048;-73
2022/12/14 00:38:29;;;;;;;82.50;31.25;;;;;;;;;;5051621;28;20070;-73
2022/12/14 00:40:55;;;;;;;95.35;32.88;;;;;;;;;;5052077;28;20044;-73
2022/12/14 00:43:21;;;;;;;81.75;29.80;;;;;;;;;;5053631;28;20037;-73
2022/12/14 00:45:47;;;;;;;77.15;28.77;;;;;;;;;;5051886;28;20037;-73
2022/12/14 00:48:14;;;;;;;77.50;29.33;;;;;;;;;;5052289;28;20415;-72
2022/12/14 00:50:40;;;;;;;66.57;27.15;;;;;;;;;;5051570;28;20060;-74
2022/12/14 00:53:06;;;;;;;66.80;27.08;;;;;;;;;;5050750;28;20040;-74
2022/12/14 00:55:42;;;;;;;76.82;28.92;;;;;;;;;;5051767;28;20102;-74
2022/12/14 00:58:08;;;;;;;;;;;;;;;;;;5052214;28;20041;-73
2022/12/14 01:00:34;;;;;;;55.63;24.10;;;;;;;;;;5051386;28;19970;-73
2022/12/14 01:03:00;;;;;;;98.05;29.48;;;;;;;;;;5034956;28;20124;-74
2022/12/14 01:05:27;;;;;;;120.80;34.08;;;;;;;;;;5051523;28;20044;-74
2022/12/14 01:07:53;;;;;;;93.70;30.60;;;;;;;;;;5050921;28;20091;-73
2022/12/14 01:10:19;;;;;;;112.15;33.33;;;;;;;;;;5051500;28;20140;-73
2022/12/14 01:12:45;;;;;;;81.45;28.45;;;;;;;;;;5051318;28;20048;-73
2022/12/14 01:15:11;;;;;;;73.00;27.08;;;;;;;;;;5051054;28;20037;-73
2022/12/14 01:17:37;;;;;;;66.30;25.73;;;;;;;;;;5051123;28;20049;-73
2022/12/14 01:20:03;;;;;;;50.83;23.55;;;;;;;;;;5051135;28;20086;-73
2022/12/14 01:22:30;;;;;;;54.17;23.00;;;;;;;;;;5034909;28;20037;-72
2022/12/14 01:24:56;;;;;;;52.05;23.73;;;;;;;;;;5084045;28;20036;-73
2022/12/14 01:27:22;;;;;;;50.47;22.27;;;;;;;;;;5051513;28;20041;-73
2022/12/14 01:29:48;;;;;;;53.92;22.75;;;;;;;;;;5052246;28;20048;-73
2022/12/14 01:32:14;;;;;;;50.60;22.45;;;;;;;;;;5051076;28;20051;-73
2022/12/14 01:34:40;;;;;;;54.30;23.75;;;;;;;;;;5048387;28;20505;-73
2022/12/14 01:37:06;;;;;;;48.42;22.75;;;;;;;;;;5034792;28;20052;-73
2022/12/14 01:39:32;;;;;;;46.55;22.23;;;;;;;;;;5050808;28;20049;-73
2022/12/14 01:41:58;;;;;;;55.85;23.13;;;;;;;;;;5050841;28;20512;-72
2022/12/14 01:44:24;;;;;;;57.28;22.77;;;;;;;;;;5034497;28;20044;-72
2022/12/14 01:46:53;;;;;;;56.00;23.52;;;;;;;;;;5050766;28;20053;-72
2022/12/14 01:49:27;;;;;;;50.35;21.10;;;;;;;;;;5051161;28;20494;-72
2022/12/14 01:51:53;;;;;;;58.20;22.63;;;;;;;;;;5050659;28;20060;-72
2022/12/14 01:54:20;;;;;;;51.00;21.60;;;;;;;;;;5050852;28;20049;-72
2022/12/14 01:56:46;;;;;;;48.47;22.08;;;;;;;;;;5050827;28;20496;-73
2022/12/14 01:59:21;;;;;;;48.08;20.73;;;;;;;;;;5034326;28;20529;-73
2022/12/14 02:01:47;;;;;;;48.55;21.15;;;;;;;;;;5050746;28;20536;-73
2022/12/14 02:04:15;;;;;;;46.58;20.73;;;;;;;;;;5053242;28;20124;-73
2022/12/14 02:06:42;;;;;;;50.10;21.55;;;;;;;;;;5057308;28;20498;-73
2022/12/14 02:09:10;;;;;;;42.25;19.02;;;;;;;;;;5057659;28;20100;-73
2022/12/14 02:11:51;;;;;;;52.03;21.10;;;;;;;;;;5057638;28;20361;-73
2022/12/14 02:14:18;;;;;;;47.75;21.08;;;;;;;;;;5057539;28;20571;-71
2022/12/14 02:16:44;;;;;;;46.83;20.38;;;;;;;;;;5056861;28;20056;-73
2022/12/14 02:19:10;;;;;;;48.70;19.52;;;;;;;;;;5057385;28;20150;-73
2022/12/14 02:21:39;;;;;;;45.38;19.67;;;;;;;;;;5057504;28;20060;-72
2022/12/14 02:24:05;;;;;;;42.28;18.60;;;;;;;;;;5057156;28;20401;-73
2022/12/14 02:26:54;;;;;;;56.05;20.98;;;;;;;;;;5057346;28;20041;-73
2022/12/14 02:29:37;;;;;;;46.38;19.88;;;;;;;;;;5057245;28;20045;-73
2022/12/14 02:32:21;;;;;;;44.53;19.00;;;;;;;;;;5056771;28;20040;-72
2022/12/14 02:34:53;;;;;;;41.53;19.50;;;;;;;;;;5054093;28;20067;-72
2022/12/14 02:37:34;;;;;;;43.00;19.50;;;;;;;;;;5040492;28;20066;-72
2022/12/14 02:40:00;;;;;;;42.65;18.13;;;;;;;;;;5056605;28;20448;-73
2022/12/14 02:42:49;;;;;;;38.65;18.08;;;;;;;;;;5057532;28;20052;-73
2022/12/14 02:45:39;;;;;;;43.95;19.00;;;;;;;;;;5049480;28;20390;-73
2022/12/14 02:48:20;;;;;;;40.92;18.35;;;;;;;;;;5032450;28;20517;-73
2022/12/14 02:50:53;;;;;;;41.47;18.38;;;;;;;;;;5039831;28;20040;-73
2022/12/14 02:53:23;;;;;;;37.45;17.77;;;;;;;;;;5056983;28;20041;-73
2022/12/14 02:55:51;;;;;;;39.63;18.60;;;;;;;;;;5056390;28;20123;-73
2022/12/14 02:58:20;;;;;;;44.00;18.90;;;;;;;;;;5056909;28;20036;-72
2022/12/14 03:00:47;;;;;;;42.25;18.90;;;;;;;;;;5054218;28;20071;-72
2022/12/14 03:03:13;;;;;;;38.50;17.00;;;;;;;;;;5040094;28;20041;-72
2022/12/14 03:05:39;;;;;;;42.13;19.00;;;;;;;;;;5056552;28;20120;-72
2022/12/14 03:08:05;;;;;;;42.33;18.85;;;;;;;;;;5056706;28;20128;-72
2022/12/14 03:10:38;;;;;;;42.88;18.17;;;;;;;;;;5054946;28;20040;-72
2022/12/14 03:13:09;;;;;;;45.75;18.77;;;;;;;;;;5056736;28;20520;-72
2022/12/14 03:15:38;;;;;;;43.20;19.15;;;;;;;;;;5037736;28;20061;-72
2022/12/14 03:18:05;;;;;;;43.50;19.05;;;;;;;;;;5053419;28;20056;-73
2022/12/14 03:20:32;;;;;;;40.45;17.90;;;;;;;;;;5053734;28;20073;-72
2022/12/14 03:23:02;;;;;;;40.50;17.77;;;;;;;;;;5053230;28;20037;-72
2022/12/14 03:25:38;;;;;;;38.08;18.02;;;;;;;;;;5053541;28;20082;-72
2022/12/14 03:28:13;;;;;;;45.72;19.10;;;;;;;;;;5052904;28;20067;-72
2022/12/14 03:30:41;;;;;;;39.10;17.55;;;;;;;;;;5053478;28;20033;-72
2022/12/14 03:33:10;;;;;;;45.00;19.58;;;;;;;;;;5053371;28;20037;-72
2022/12/14 03:35:39;;;;;;;42.33;17.88;;;;;;;;;;5054187;28;20032;-73
2022/12/14 03:38:29;;;;;;;43.65;18.70;;;;;;;;;;5053076;28;20067;-72
2022/12/14 03:41:10;;;;;;;45.15;18.38;;;;;;;;;;5052655;28;20080;-73
2022/12/14 03:43:40;;;;;;;41.38;18.08;;;;;;;;;;5036435;28;20033;-72
2022/12/14 03:46:10;;;;;;;44.63;18.63;;;;;;;;;;5052800;28;20037;-72
2022/12/14 03:48:36;;;;;;;44.95;18.35;;;;;;;;;;5054551;28;20374;-73
2022/12/14 03:51:12;;;;;;;45.13;19.38;;;;;;;;;;5052525;28;20041;-73
2022/12/14 03:53:38;;;;;;;35.53;15.57;;;;;;;;;;5053555;28;20041;-73
2022/12/14 03:56:25;;;;;;;45.53;18.80;;;;;;;;;;5053636;28;20045;-73
2022/12/14 03:59:11;;;;;;;41.67;17.95;;;;;;;;;;5053433;28;20475;-73
2022/12/14 04:01:42;;;;;;;43.28;18.40;;;;;;;;;;5036057;28;20045;-73
2022/12/14 04:04:29;;;;;;;39.83;17.90;;;;;;;;;;5052504;28;20041;-73
2022/12/14 04:07:02;;;;;;;40.85;16.85;;;;;;;;;;5052600;28;20545;-73
2022/12/14 04:09:34;;;;;;;42.88;18.60;;;;;;;;;;5052738;28;20061;-73
2022/12/14 04:20:45;;;;;;;36.10;15.07;;;;;;;;;;5086323;28;20041;-73
2022/12/14 04:23:13;;;;;;;43.45;18.35;;;;;;;;;;5053539;28;20033;-73
2022/12/14 04:31:18;;;;;;;46.95;18.20;;;;;;;;;;5051749;28;20079;-73
2022/12/14 04:33:47;;;;;;;50.20;18.60;;;;;;;;;;5046366;28;20513;-73
2022/12/14 04:36:22;;;;;;;48.42;19.00;;;;;;;;;;5045256;28;20037;-73
2022/12/14 04:38:50;;;;;;;50.90;19.55;;;;;;;;;;5052199;28;20040;-73
2022/12/14 04:41:19;;;;;;;53.15;20.27;;;;;;;;;;5051581;28;20037;-73
2022/12/14 04:43:46;;;;;;;49.30;19.88;;;;;;;;;;5035153;28;20082;-73
2022/12/14 04:46:13;;;;;;;51.45;20.77;;;;;;;;;;5051936;28;20119;-73
2022/12/14 04:48:44;;;;;;;50.05;19.13;;;;;;;;;;5051676;28;20033;-73
2022/12/14 04:51:14;;;;;;;50.28;19.75;;;;;;;;;;5051529;28;20037;-73
2022/12/14 04:53:43;;;;;;;50.95;20.15;;;;;;;;;;5052121;28;20418;-73
2022/12/14 04:56:12;;;;;;;47.47;19.35;;;;;;;;;;5051793;28;20041;-73
2022/12/14 04:58:39;;;;;;;49.55;19.63;;;;;;;;;;5051492;28;20055;-73
2022/12/14 05:01:24;;;;;;;50.85;20.70;;;;;;;;;;5047514;28;20398;-73
2022/12/14 05:04:08;;;;;;;43.33;18.80;;;;;;;;;;5048111;28;20045;-73
2022/12/14 05:06:52;;;;;;;43.35;18.52;;;;;;;;;;5051087;28;20114;-73
2022/12/14 05:09:29;;;;;;;46.30;20.25;;;;;;;;;;5051368;28;20044;-73
2022/12/14 05:12:01;;;;;;;47.15;19.33;;;;;;;;;;5044845;28;20550;-73
2022/12/14 05:14:36;;;;;;;49.05;19.58;;;;;;;;;;5050979;28;20041;-73
2022/12/14 05:17:04;;;;;;;52.03;18.75;;;;;;;;;;5060525;28;20064;-73
2022/12/14 05:19:30;;;;;;;47.25;19.02;;;;;;;;;;5050982;28;20041;-73
2022/12/14 05:22:04;;;;;;;48.42;19.33;;;;;;;;;;5051281;28;20037;-73
2022/12/14 05:24:30;;;;;;;49.60;18.35;;;;;;;;;;5051288;28;20036;-73
2022/12/14 05:26:56;;;;;;;54.88;20.33;;;;;;;;;;5051375;28;20052;-73
2022/12/14 05:29:22;;;;;;;48.60;20.42;;;;;;;;;;5050641;28;20041;-73
2022/12/14 05:31:49;;;;;;;48.97;19.20;;;;;;;;;;5052497;28;20478;-73
2022/12/14 05:34:15;;;;;;;50.40;19.25;;;;;;;;;;5040212;28;20041;-73
2022/12/14 05:36:41;;;;;;;48.38;20.17;;;;;;;;;;5048381;28;20537;-73
2022/12/14 05:39:07;;;;;;;48.38;19.48;;;;;;;;;;5050662;28;20478;-73
2022/12/14 05:41:34;;;;;;;46.90;19.02;;;;;;;;;;5051019;28;20041;-74
2022/12/14 05:44:00;;;;;;;49.78;18.85;;;;;;;;;;5051135;28;20135;-74
2022/12/14 05:46:26;;;;;;;48.03;18.95;;;;;;;;;;5014760;28;20079;-74
2022/12/14 05:48:52;;;;;;;43.42;18.17;;;;;;;;;;5050554;28;20563;-74
2022/12/14 05:51:18;;;;;;;41.42;16.80;;;;;;;;;;5034636;28;20048;-73
2022/12/14 05:53:44;;;;;;;43.13;17.60;;;;;;;;;;5051134;28;20073;-72
2022/12/14 05:56:11;;;;;;;50.45;18.00;;;;;;;;;;5052277;28;20106;-73
2022/12/14 05:58:37;;;;;;;42.60;17.23;;;;;;;;;;5050916;28;20041;-73
2022/12/14 06:01:05;;;;;;;41.92;18.35;;;;;;;;;;5051035;28;20048;-73
2022/12/14 06:03:31;;;;;;;41.33;17.05;;;;;;;;;;5050371;28;20041;-73
2022/12/14 06:06:01;;;;;;;46.10;18.27;;;;;;;;;;5051003;28;20055;-72
2022/12/14 06:08:30;;;;;;;48.92;18.55;;;;;;;;;;5050579;28;20059;-72
2022/12/14 06:11:07;;;;;;;44.08;18.00;;;;;;;;;;5050880;28;20072;-72
2022/12/14 06:13:34;;;;;;;48.50;19.38;;;;;;;;;;5050298;28;20068;-72
2022/12/14 06:16:08;;;;;;;43.33;17.20;;;;;;;;;;5050199;28;20094;-72
2022/12/14 06:18:34;;;;;;;39.85;16.40;;;;;;;;;;5050053;28;20052;-72
2022/12/14 06:21:00;;;;;;;48.47;17.98;;;;;;;;;;5050695;28;20470;-72
2022/12/14 06:23:26;;;;;;;45.88;17.65;;;;;;;;;;5050399;28;20393;-72
2022/12/14 06:25:54;;;;;;;42.58;16.67;;;;;;;;;;5050583;28;20099;-72
2022/12/14 06:28:20;;;;;;;48.22;17.67;;;;;;;;;;5049964;28;20119;-72
2022/12/14 06:30:47;;;;;;;41.33;16.75;;;;;;;;;;5034428;28;20620;-72
2022/12/14 06:33:13;;;;;;;43.58;17.20;;;;;;;;;;5048591;28;20072;-73
2022/12/14 06:35:48;;;;;;;44.15;18.13;;;;;;;;;;5039284;28;20039;-72
2022/12/14 06:38:15;;;;;;;42.33;16.98;;;;;;;;;;5083745;28;20041;-73
2022/12/14 06:40:42;;;;;;;41.17;16.70;;;;;;;;;;5050483;28;20047;-73
2022/12/14 06:43:08;;;;;;;46.03;17.33;;;;;;;;;;5051762;28;20478;-73
2022/12/14 06:45:34;;;;;;;44.55;17.90;;;;;;;;;;5049969;28;20031;-73
2022/12/14 06:48:01;;;;;;;48.70;17.42;;;;;;;;;;5050679;28;20108;-73
2022/12/14 06:50:27;;;;;;;42.85;17.60;;;;;;;;;;5049990;28;20044;-73
2022/12/14 06:52:56;;;;;;;45.97;17.95;;;;;;;;;;5054190;28;20037;-73
2022/12/14 06:55:24;;;;;;;45.75;17.17;;;;;;;;;;5053975;28;20500;-73
2022/12/14 06:57:50;;;;;;;45.97;17.98;;;;;;;;;;5054101;28;20045;-72
2022/12/14 07:00:17;;;;;;;43.85;17.15;;;;;;;;;;5053558;28;20045;-72
2022/12/14 07:02:43;;;;;;;48.30;18.15;;;;;;;;;;5054131;28;20040;-73
2022/12/14 07:05:09;;;;;;;48.05;18.25;;;;;;;;;;5053902;28;20120;-72
2022/12/14 07:07:35;;;;;;;42.25;17.65;;;;;;;;;;5053729;28;20482;-72
2022/12/14 07:10:01;;;;;;;44.42;18.70;;;;;;;;;;5053938;28;20486;-72
2022/12/14 07:12:28;;;;;;;44.10;18.05;;;;;;;;;;5037064;28;20497;-73
2022/12/14 07:14:54;;;;;;;45.78;19.35;;;;;;;;;;5053997;28;20041;-72
2022/12/14 07:17:21;;;;;;;44.90;18.55;;;;;;;;;;5053093;28;20079;-72
2022/12/14 07:19:47;;;;;;;51.90;19.58;;;;;;;;;;5037128;28;20045;-73
2022/12/14 07:22:13;;;;;;;44.78;17.40;;;;;;;;;;5037005;28;20051;-73
2022/12/14 07:24:40;;;;;;;47.17;19.23;;;;;;;;;;5053614;28;20520;-73
2022/12/14 07:27:06;;;;;;;114.90;45.83;;;;;;;;;;5053532;28;20124;-73
2022/12/14 07:29:32;;;;;;;47.63;19.05;;;;;;;;;;5053216;28;20494;-73
2022/12/14 07:31:58;;;;;;;44.92;18.75;;;;;;;;;;5053725;28;20482;-73
2022/12/14 07:34:24;;;;;;;47.97;19.17;;;;;;;;;;5053023;28;20077;-73
2022/12/14 07:36:51;;;;;;;48.97;18.25;;;;;;;;;;5053320;28;20045;-73
2022/12/14 07:39:17;;;;;;;45.78;18.40;;;;;;;;;;5053257;28;20126;-73
2022/12/14 07:41:44;;;;;;;43.08;17.65;;;;;;;;;;5052878;28;20056;-72
2022/12/14 07:44:10;;;;;;;49.53;19.55;;;;;;;;;;5036839;28;20037;-73
2022/12/14 07:46:36;;;;;;;47.30;18.63;;;;;;;;;;5052691;28;20497;-73
2022/12/14 07:49:03;;;;;;;48.67;17.70;;;;;;;;;;5053296;28;20127;-72
2022/12/14 07:51:30;;;;;;;48.65;18.70;;;;;;;;;;5052855;28;20118;-73
2022/12/14 07:53:56;;;;;;;49.90;18.77;;;;;;;;;;5053073;28;20040;-73
2022/12/14 07:56:24;;;;;;;53.60;19.65;;;;;;;;;;5036678;28;20569;-73
2022/12/14 07:58:50;;;;;;;62.38;19.95;;;;;;;;;;5053007;28;20044;-73
2022/12/14 08:01:21;;;;;;;43.22;18.00;;;;;;;;;;5052636;28;20529;-73
2022/12/14 08:03:48;;;;;;;47.13;18.85;;;;;;;;;;5052510;28;20047;-73
2022/12/14 08:06:15;;;;;;;45.78;18.30;;;;;;;;;;5052959;28;20075;-73
2022/12/14 08:08:41;;;;;;;44.45;17.73;;;;;;;;;;5052720;28;20049;-73
2022/12/14 08:11:08;;;;;;;44.63;17.90;;;;;;;;;;5036308;28;20040;-73
2022/12/14 08:13:37;;;;;;;48.15;18.38;;;;;;;;;;5052829;28;20490;-72
2022/12/14 08:16:08;;;;;;;48.20;19.60;;;;;;;;;;5035704;28;20056;-73
2022/12/14 08:18:35;;;;;;;49.88;19.73;;;;;;;;;;5052186;28;20037;-73
2022/12/14 08:21:01;;;;;;;45.35;18.55;;;;;;;;;;5052463;28;20041;-73
2022/12/14 08:23:27;;;;;;;50.90;21.75;;;;;;;;;;5052551;28;20066;-73
2022/12/14 08:25:58;;;;;;;47.13;19.05;;;;;;;;;;5052381;28;20033;-73
2022/12/14 08:28:25;;;;;;;56.03;21.85;;;;;;;;;;5035751;28;20079;-73
2022/12/14 08:30:51;;;;;;;48.50;21.55;;;;;;;;;;5052226;28;20428;-74
2022/12/14 08:33:17;;;;;;;50.03;22.92;;;;;;;;;;5050039;28;20041;-74
2022/12/14 08:35:44;;;;;;;48.17;21.85;;;;;;;;;;5041227;28;20047;-74
2022/12/14 08:38:10;;;;;;;43.55;20.33;;;;;;;;;;5052205;28;20048;-74
2022/12/14 08:40:36;;;;;;;41.72;20.05;;;;;;;;;;5051876;28;20045;-74
2022/12/14 08:43:02;;;;;;;39.33;19.05;;;;;;;;;;5052483;28;20406;-75
2022/12/14 08:45:28;;;;;;;38.25;18.92;;;;;;;;;;5052142;28;20386;-74
2022/12/14 08:47:58;;;;;;;34.35;18.33;;;;;;;;;;5051807;28;20521;-72
2022/12/14 08:50:24;;;;;;;31.20;17.42;;;;;;;;;;5052180;28;20072;-72
2022/12/14 08:52:50;;;;;;;31.25;17.15;;;;;;;;;;5051661;28;20128;-72
2022/12/14 08:55:16;;;;;;;31.92;17.48;;;;;;;;;;5051910;28;20040;-75
2022/12/14 08:57:42;;;;;;;33.95;18.50;;;;;;;;;;5051466;28;20049;-72
2022/12/14 09:00:09;;;;;;;31.40;17.77;;;;;;;;;;5034994;28;20052;-72
2022/12/14 09:02:35;;;;;;;31.83;18.90;;;;;;;;;;5034905;28;20504;-72
2022/12/14 09:05:01;;;;;;;32.00;18.00;;;;;;;;;;5035426;28;20040;-73
2022/12/14 09:07:28;;;;;;;32.63;17.98;;;;;;;;;;5052022;28;20386;-72
2022/12/14 09:09:54;;;;;;;31.23;18.02;;;;;;;;;;5051321;28;20049;-73
2022/12/14 09:12:20;;;;;;;31.67;17.30;;;;;;;;;;5035077;28;20099;-72
2022/12/14 09:14:48;;;;;;;30.52;16.60;;;;;;;;;;5034098;28;20044;-73
2022/12/14 09:17:15;;;;;;;31.23;17.63;;;;;;;;;;5051121;28;20057;-73
2022/12/14 09:19:41;;;;;;;29.50;18.05;;;;;;;;;;5050858;28;20045;-73
2022/12/14 09:22:07;;;;;;;29.50;17.83;;;;;;;;;;5051620;28;20041;-73
2022/12/14 09:24:33;;;;;;;31.83;18.52;;;;;;;;;;5052531;28;20482;-73
2022/12/14 09:26:59;;;;;;;29.70;18.10;;;;;;;;;;5050846;28;20033;-73
2022/12/14 09:29:26;;;;;;;28.58;17.17;;;;;;;;;;5051338;28;20068;-73
2022/12/14 09:31:53;;;;;;;27.08;17.20;;;;;;;;;;5034099;28;20048;-73
2022/12/14 09:34:19;;;;;;;29.67;17.50;;;;;;;;;;5024131;28;20510;-73
2022/12/14 09:36:45;;;;;;;30.27;17.90;;;;;;;;;;5031810;28;20111;-73
2022/12/14 09:39:15;;;;;;;26.92;16.70;;;;;;;;;;5051269;28;20244;-73
2022/12/14 09:41:44;;;;;;;27.95;16.90;;;;;;;;;;5034042;28;20068;-73
2022/12/14 09:44:29;;;;;;;28.17;17.52;;;;;;;;;;5051320;28;20088;-73
2022/12/14 09:46:58;;;;;;;25.67;16.67;;;;;;;;;;5050452;28;20048;-74
2022/12/14 09:49:26;;;;;;;26.98;17.52;;;;;;;;;;5034584;28;20048;-73
2022/12/14 09:51:53;;;;;;;29.45;17.42;;;;;;;;;;5050456;28;20044;-74
2022/12/14 09:54:22;;;;;;;27.67;16.85;;;;;;;;;;5034552;28;20045;-74
2022/12/14 09:56:48;;;;;;;25.88;16.67;;;;;;;;;;5050377;28;20068;-74
2022/12/14 09:59:17;;;;;;;27.38;17.30;;;;;;;;;;5034566;28;20052;-74
2022/12/14 10:02:02;;;;;;;27.38;17.10;;;;;;;;;;5050321;28;20052;-74
2022/12/14 10:04:48;;;;;;;25.77;16.60;;;;;;;;;;5050796;28;20044;-73
2022/12/14 10:07:29;;;;;;;26.92;17.15;;;;;;;;;;5040336;28;20071;-74
2022/12/14 10:09:59;;;;;;;26.10;17.17;;;;;;;;;;5050475;28;20037;-74
2022/12/14 10:12:31;;;;;;;25.50;16.13;;;;;;;;;;5050855;28;20035;-74
2022/12/14 10:15:12;;;;;;;25.98;16.75;;;;;;;;;;5050657;28;20045;-74
2022/12/14 10:17:38;;;;;;;24.95;16.35;;;;;;;;;;5050648;28;20045;-74
2022/12/14 10:20:14;;;;;;;24.33;15.73;;;;;;;;;;5050274;28;20099;-74
2022/12/14 10:22:43;;;;;;;27.45;18.92;;;;;;;;;;5050571;28;20128;-74
2022/12/14 10:25:15;;;;;;;27.33;18.27;;;;;;;;;;5035314;28;20041;-74
2022/12/14 10:27:45;;;;;;;24.85;16.08;;;;;;;;;;5054694;28;20036;-74
2022/12/14 10:30:15;;;;;;;23.88;15.55;;;;;;;;;;5054625;28;20063;-74
2022/12/14 10:32:46;;;;;;;23.13;15.70;;;;;;;;;;5054649;28;20053;-75
2022/12/14 10:35:13;;;;;;;23.98;15.88;;;;;;;;;;5024224;28;20076;-74
2022/12/14 10:37:41;;;;;;;23.40;14.95;;;;;;;;;;5054699;28;20512;-74
2022/12/14 10:40:10;;;;;;;24.17;14.60;;;;;;;;;;5054036;28;20084;-74
2022/12/14 10:42:51;;;;;;;24.33;15.95;;;;;;;;;;5054566;28;20544;-74
2022/12/14 10:45:20;;;;;;;23.65;15.52;;;;;;;;;;5037921;28;20486;-74
2022/12/14 10:47:49;;;;;;;24.65;15.85;;;;;;;;;;5054352;28;20079;-74
2022/12/14 10:50:27;;;;;;;23.20;15.02;;;;;;;;;;5037575;28;20128;-74
2022/12/14 10:52:54;;;;;;;23.15;16.27;;;;;;;;;;5054142;28;20521;-74
2022/12/14 10:55:41;;;;;;;21.42;14.93;;;;;;;;;;5054452;28;20443;-74
2022/12/14 10:58:08;;;;;;;20.55;14.50;;;;;;;;;;5053750;28;20072;-74
2022/12/14 11:00:35;;;;;;;23.52;15.38;;;;;;;;;;5037537;28;20044;-74
2022/12/14 11:03:02;;;;;;;23.08;15.27;;;;;;;;;;5053689;28;20076;-74
2022/12/14 11:05:36;;;;;;;24.48;14.48;;;;;;;;;;5053844;28;20037;-74
2022/12/14 11:08:03;;;;;;;22.63;14.82;;;;;;;;;;5053627;28;20045;-73
2022/12/14 11:10:38;;;;;;;21.83;14.07;;;;;;;;;;5054178;28;20512;-73
2022/12/14 11:13:07;;;;;;;23.85;15.20;;;;;;;;;;5053889;28;20049;-73
2022/12/14 11:15:33;;;;;;;24.13;15.10;;;;;;;;;;5054079;28;20049;-74
2022/12/14 11:18:01;;;;;;;23.33;15.00;;;;;;;;;;5053369;28;20064;-74
2022/12/14 11:20:27;;;;;;;29.88;16.75;;;;;;;;;;5053608;28;20118;-74
2022/12/14 11:22:55;;;;;;;25.48;14.88;;;;;;;;;;5053151;28;20044;-74
2022/12/14 11:25:28;;;;;;;28.02;15.80;;;;;;;;;;5053764;28;20045;-74
2022/12/14 11:27:55;;;;;;;30.52;18.02;;;;;;;;;;5053358;28;20482;-74
2022/12/14 11:30:21;;;;;;;35.67;17.88;;;;;;;;;;5055017;28;20461;-74
2022/12/14 11:32:47;;;;;;;30.70;16.63;;;;;;;;;;5055030;28;20482;-74
2022/12/14 11:35:18;;;;;;;27.95;16.55;;;;;;;;;;5040811;28;20447;-74
2022/12/14 11:37:44;;;;;;;27.75;16.50;;;;;;;;;;5052403;28;20114;-74
2022/12/14 11:40:19;;;;;;;29.15;16.35;;;;;;;;;;5052793;28;20041;-74
2022/12/14 11:42:55;;;;;;;29.13;15.50;;;;;;;;;;5053328;28;20041;-73
2022/12/14 11:45:24;;;;;;;29.25;16.50;;;;;;;;;;5053097;28;20120;-73
2022/12/14 11:48:09;;;;;;;32.47;16.52;;;;;;;;;;5053673;28;20421;-73
2022/12/14 11:50:35;;;;;;;30.80;16.70;;;;;;;;;;5053029;28;20033;-73
2022/12/14 11:53:05;;;;;;;31.52;17.02;;;;;;;;;;5036089;28;20037;-74
2022/12/14 11:55:33;;;;;;;32.22;16.60;;;;;;;;;;5053301;28;20511;-73
2022/12/14 11:57:59;;;;;;;30.33;15.65;;;;;;;;;;5052715;28;20127;-73
2022/12/14 12:00:27;;;;;;;28.52;14.95;;;;;;;;;;5052916;28;20049;-73
2022/12/14 12:03:05;;;;;;;30.27;16.30;;;;;;;;;;5052981;28;20037;-73
2022/12/14 12:05:32;;;;;;;31.40;16.85;;;;;;;;;;5052785;28;20044;-73
2022/12/14 12:07:59;;;;;;;35.88;16.35;;;;;;;;;;5052540;28;20443;-73
2022/12/14 12:10:27;;;;;;;31.15;15.85;;;;;;;;;;5052584;28;20097;-74
2022/12/14 12:12:56;;;;;;;30.65;15.77;;;;;;;;;;5052804;28;20044;-73
2022/12/14 12:15:25;;;;;;;33.42;16.25;;;;;;;;;;5052004;28;20060;-73
2022/12/14 12:18:03;;;;;;;33.38;15.43;;;;;;;;;;5052806;28;20136;-74
2022/12/14 12:20:33;;;;;;;30.83;14.48;;;;;;;;;;5052852;28;20041;-73
2022/12/14 12:23:03;;;;;;;28.23;13.85;;;;;;;;;;5052720;28;20382;-73
2022/12/14 12:25:32;;;;;;;29.02;14.10;;;;;;;;;;5052684;28;20044;-73
2022/12/14 12:28:04;;;;;;;37.30;15.07;;;;;;;;;;5035778;28;20044;-73
2022/12/14 12:30:32;;;;;;;30.23;14.52;;;;;;;;;;5052557;28;20378;-74
2022/12/14 12:33:04;;;;;;;28.23;13.13;;;;;;;;;;5052709;28;20436;-73
2022/12/14 12:35:42;;;;;;;27.52;13.13;;;;;;;;;;5039597;28;20040;-73
2022/12/14 12:38:15;;;;;;;24.77;12.25;;;;;;;;;;5052230;28;20084;-74
2022/12/14 12:41:00;;;;;;;27.60;13.02;;;;;;;;;;5052195;28;20098;-74
2022/12/14 12:43:38;;;;;;;25.00;11.70;;;;;;;;;;5034999;28;20052;-73
2022/12/14 12:46:11;;;;;;;26.55;13.05;;;;;;;;;;5053218;28;20122;-73
2022/12/14 12:48:39;;;;;;;30.02;13.38;;;;;;;;;;5053528;28;20029;-73
2022/12/14 12:51:11;;;;;;;30.58;13.60;;;;;;;;;;5052920;28;20094;-73
2022/12/14 12:53:48;;;;;;;26.67;13.15;;;;;;;;;;5052121;28;20094;-72
2022/12/14 12:56:16;;;;;;;28.60;12.88;;;;;;;;;;5051781;28;20485;-73
2022/12/14 12:58:43;;;;;;;28.05;13.48;;;;;;;;;;5051783;28;20106;-73
2022/12/14 13:01:28;;;;;;;26.77;13.30;;;;;;;;;;5051385;28;20048;-73
2022/12/14 13:03:56;;;;;;;28.98;12.65;;;;;;;;;;5051769;28;20067;-73
2022/12/14 13:06:34;;;;;;;27.13;12.52;;;;;;;;;;5051398;28;20053;-73
2022/12/14 13:09:06;;;;;;;25.80;12.25;;;;;;;;;;5051611;28;20095;-72
2022/12/14 13:11:35;;;;;;;24.63;12.38;;;;;;;;;;5035109;28;20091;-73
2022/12/14 13:14:21;;;;;;;26.33;12.45;;;;;;;;;;5053131;28;20502;-73
2022/12/14 13:16:48;;;;;;;25.75;11.95;;;;;;;;;;5034908;28;20061;-73
2022/12/14 13:19:25;;;;;;;26.25;12.40;;;;;;;;;;5050974;28;20044;-74
2022/12/14 13:21:52;;;;;;;23.77;11.48;;;;;;;;;;5051474;28;20111;-73
2022/12/14 13:24:20;;;;;;;27.25;12.30;;;;;;;;;;5050906;28;20045;-73
2022/12/14 13:26:53;;;;;;;27.98;12.18;;;;;;;;;;5051233;28;20039;-73
2022/12/14 13:29:28;;;;;;;25.02;12.18;;;;;;;;;;5051029;28;20049;-73
2022/12/14 13:31:57;;;;;;;20.52;9.35;;;;;;;;;;5051769;28;20044;-73
2022/12/14 13:34:32;;;;;;;27.38;12.13;;;;;;;;;;5051231;28;20076;-73
2022/12/14 13:37:17;;;;;;;19.42;8.85;;;;;;;;;;5034916;28;20059;-73
2022/12/14 13:39:49;;;;;;;26.00;12.48;;;;;;;;;;5034354;28;20049;-74
2022/12/14 13:42:34;;;;;;;25.42;12.45;;;;;;;;;;5050920;28;20049;-73
2022/12/14 13:45:01;;;;;;;26.13;11.90;;;;;;;;;;5052312;28;20112;-73
2022/12/14 13:47:47;;;;;;;24.35;11.48;;;;;;;;;;5050821;28;20107;-73
2022/12/14 13:50:34;;;;;;;26.00;12.02;;;;;;;;;;5051122;28;20080;-73
2022/12/14 13:53:02;;;;;;;26.45;11.50;;;;;;;;;;5051125;28;20048;-73
2022/12/14 13:55:36;;;;;;;24.90;11.70;;;;;;;;;;5051627;28;20072;-73
2022/12/14 13:58:25;;;;;;;24.50;10.45;;;;;;;;;;5084593;28;20044;-73
2022/12/14 14:00:53;;;;;;;24.73;11.02;;;;;;;;;;5042384;28;20053;-72
2022/12/14 14:03:35;;;;;;;27.95;12.43;;;;;;;;;;5051782;28;20058;-73
2022/12/14 14:06:20;;;;;;;26.17;12.02;;;;;;;;;;5051127;28;20103;-73
2022/12/14 14:08:50;;;;;;;26.95;12.02;;;;;;;;;;5052298;28;20549;-73
2022/12/14 14:11:20;;;;;;;26.65;11.50;;;;;;;;;;5050531;28;20506;-73
2022/12/14 14:13:46;;;;;;;25.23;11.25;;;;;;;;;;5050851;28;20069;-73
2022/12/14 14:16:31;;;;;;;27.52;12.63;;;;;;;;;;5050678;28;20057;-73
2022/12/14 14:19:01;;;;;;;28.17;12.10;;;;;;;;;;5051065;28;20048;-73
2022/12/14 14:21:38;;;;;;;28.98;12.55;;;;;;;;;;5066871;28;20045;-73
2022/12/14 14:24:16;;;;;;;28.15;12.77;;;;;;;;;;5034244;28;20481;-73
2022/12/14 14:26:43;;;;;;;29.27;12.63;;;;;;;;;;5050365;28;20095;-73
2022/12/14 14:29:26;;;;;;;25.15;12.05;;;;;;;;;;5034360;28;20578;-73
2022/12/14 14:31:54;;;;;;;27.30;12.60;;;;;;;;;;5050430;28;20053;-73
2022/12/14 14:34:38;;;;;;;29.40;13.52;;;;;;;;;;5033655;28;20044;-73
2022/12/14 14:37:20;;;;;;;31.40;13.07;;;;;;;;;;5040407;28;20045;-73
2022/12/14 14:40:06;;;;;;;26.35;12.80;;;;;;;;;;5050224;28;20033;-73
2022/12/14 14:42:36;;;;;;;30.00;13.73;;;;;;;;;;5050308;28;20044;-73
2022/12/14 14:45:04;;;;;;;28.70;13.57;;;;;;;;;;5050312;28;20037;-72
2022/12/14 14:47:35;;;;;;;31.20;13.60;;;;;;;;;;5049910;28;20044;-73